Metropolitan Oakland International Airport
KOAK : now visible

Airfield :











YOU CAN JOIN US ON...

 
LOGIN :

Register | Disclaimer

   EN    FR    IT 

 









Legend :    VFR   Marginal VFR   IFR   Intensive IFR   Very Intensive IFR
Visi :
Ceiling :
>= 8 km
>= 3000ft
5 to 8 km
1000 to 3000 ft
1500m to 5 km
500 to 1000 ft
800 to 1500m
200 to 500 ft
< 800m
< 200 ft
Symbols :   Thunderstorms  Fog  Heavy snow  Heavy precipitations  Wind > 20 kt






- Airport Elevation : 9 ft
- IATA code : OAK


KOAK - Metropolitan Oakland International

CURRENT METAR :
  • 131153Z 00000KT 10SM BKN010 16/12 A2986 RMK AO2 SLP110 T01560122 10178 20156 55004

EXPIRED METARs :
  • 131053Z 01003KT 10SM BKN008 16/13 A2985 RMK AO2 SLP108 T01610128
  • 130953Z 00000KT 10SM OVC008 16/13 A2986 RMK AO2 SLP111 T01610133

TAF KOAK
Valid from the 13 at 12:00 until the 14 at 18:00 UTC


131139Z 1312/1418 26007KT P6SM OVC008
FM131800 25008KT P6SM FEW010
FM132000 26011KT P6SM SKC
FM132300 28013G18KT P6SM SKC
FM140500 27008KT P6SM OVC009
FM141730 27010KT P6SM FEW010
KZOA FIR / North America



MET'MAP, your aeronautical weather chart ! - Copyright ORBIFLY December 2007 - Disclaimer

ORBIFLY MET'MAP TEAM :

Programming & Development : Alexandra Zaïnal
Concept & original design : Baudouin d'Aumeries
Assistance for programming : Marc-Olivier Méhu
Technical & hardware support : Manuel Goepfert

Contact : metmap@orbifly.com




SOURCES & CREDITS :

   NOAA       Earth
Advisory